Time;durP1;ratioP1;P1;durP2;ratioP2;P2;SDS_P1;SDS_P2;PMS_P1;PMS_P2;Temp;Humidity;BMP_temperature;BMP_pressure;BME280_temperature;BME280_humidity;BME280_pressure;Samples;Min_cycle;Max_cycle;Signal;HPM_P1;HPM_P2
2022/04/19 00:01:00;;;;;;;1.90;1.40;;;15.90;61.10;;;;;;5023305;28;20053;-75
2022/04/19 00:03:36;;;;;;;3.00;1.40;;;15.80;61.00;;;;;;5019382;28;20480;-74
2022/04/19 00:06:05;;;;;;;2.70;1.40;;;15.90;61.20;;;;;;5032367;28;20054;-75
2022/04/19 00:08:32;;;;;;;2.40;1.40;;;15.80;61.10;;;;;;5026885;28;20121;-74
2022/04/19 00:11:05;;;;;;;2.40;1.30;;;15.90;61.20;;;;;;5002105;28;20041;-75
2022/04/19 00:13:32;;;;;;;3.05;1.40;;;15.80;61.20;;;;;;5013414;28;20049;-74
2022/04/19 00:16:04;;;;;;;3.13;1.40;;;15.80;61.20;;;;;;5001692;28;20069;-75
2022/04/19 00:18:32;;;;;;;2.20;1.38;;;15.80;62.00;;;;;;5022227;28;20045;-77
2022/04/19 00:21:03;;;;;;;2.45;1.40;;;15.80;61.20;;;;;;5005544;28;20052;-77
2022/04/19 00:23:36;;;;;;;2.33;1.30;;;15.80;61.20;;;;;;5027918;28;20439;-75
2022/04/19 00:26:05;;;;;;;2.65;1.60;;;15.80;61.20;;;;;;5003020;28;20497;-77
2022/04/19 00:28:32;;;;;;;3.30;1.70;;;15.80;61.20;;;;;;5019373;28;20124;-74
2022/04/19 00:30:59;;;;;;;2.22;1.40;;;15.80;61.20;;;;;;5003644;28;20048;-76
2022/04/19 00:33:44;;;;;;;2.55;1.73;;;15.80;61.20;;;;;;5025899;28;20083;-76
2022/04/19 00:36:18;;;;;;;2.38;1.60;;;15.80;61.30;;;;;;5020984;28;20046;-77
2022/04/19 00:38:56;;;;;;;3.17;1.50;;;15.80;61.40;;;;;;5029941;28;20048;-75
2022/04/19 00:41:29;;;;;;;3.95;1.33;;;15.80;61.30;;;;;;5033589;28;20049;-75
2022/04/19 00:44:03;;;;;;;2.97;1.70;;;15.80;61.40;;;;;;5023119;28;20049;-76
2022/04/19 00:46:31;;;;;;;2.67;1.58;;;15.80;61.40;;;;;;5021511;28;20045;-75
2022/04/19 00:48:59;;;;;;;2.35;1.50;;;15.80;61.40;;;;;;5022301;28;20415;-76
2022/04/19 00:51:29;;;;;;;2.35;1.65;;;15.80;61.50;;;;;;5022882;28;20128;-76
2022/04/19 00:54:02;;;;;;;3.20;1.70;;;15.80;61.40;;;;;;5028058;28;20124;-77
2022/04/19 00:56:30;;;;;;;2.17;1.50;;;15.80;61.50;;;;;;5021840;28;20049;-75
2022/04/19 00:58:57;;;;;;;4.03;1.65;;;15.70;61.50;;;;;;5023912;28;20142;-77
2022/04/19 01:01:24;;;;;;;2.67;1.60;;;15.80;61.50;;;;;;5017778;28;20046;-76
2022/04/19 01:03:57;;;;;;;3.10;1.50;;;15.70;61.50;;;;;;5022108;28;20041;-77
2022/04/19 01:06:25;;;;;;;2.33;1.45;;;15.80;61.60;;;;;;5034563;28;20136;-76
2022/04/19 01:08:52;;;;;;;2.10;1.40;;;15.80;61.50;;;;;;5015466;28;20053;-77
2022/04/19 01:14:05;;;;;;;2.85;1.60;;;15.70;61.50;;;;;;5002570;28;20038;-76
2022/04/19 01:16:36;;;;;;;3.25;1.55;;;15.70;61.50;;;;;;5021349;28;20037;-76
2022/04/19 01:19:09;;;;;;;2.00;1.50;;;15.70;61.50;;;;;;5022143;28;20111;-75
2022/04/19 01:21:48;;;;;;;2.53;1.50;;;15.80;61.60;;;;;;5021638;28;20041;-75
2022/04/19 01:24:33;;;;;;;2.90;1.70;;;15.70;61.50;;;;;;5017972;28;20048;-75
2022/04/19 01:27:00;;;;;;;2.47;1.70;;;15.70;61.50;;;;;;5000736;28;20038;-77
2022/04/19 01:29:28;;;;;;;1.90;1.30;;;15.70;62.30;;;;;;5005318;28;20175;-76
2022/04/19 01:31:55;;;;;;;1.95;1.45;;;15.70;61.50;;;;;;5020703;28;20072;-76
2022/04/19 01:34:37;;;;;;;2.05;1.40;;;15.70;61.60;;;;;;5021416;28;20041;-76
2022/04/19 01:37:06;;;;;;;2.85;1.50;;;15.70;61.60;;;;;;5021461;28;20046;-77
2022/04/19 01:42:23;;;;;;;1.70;1.30;;;15.70;61.50;;;;;;5020443;28;20045;-76
2022/04/19 01:44:53;;;;;;;2.55;1.40;;;15.70;61.50;;;;;;4988472;28;20592;-77
2022/04/19 01:47:20;;;;;;;2.05;1.40;;;15.70;61.50;;;;;;5019708;28;20037;-77
2022/04/19 01:49:48;;;;;;;3.60;1.60;;;15.70;61.50;;;;;;5017107;28;20492;-75
2022/04/19 01:52:19;;;;;;;2.03;1.48;;;15.70;61.60;;;;;;5022090;28;20045;-77
2022/04/19 01:54:47;;;;;;;2.17;1.50;;;15.70;61.50;;;;;;5016921;28;20046;-75
2022/04/19 01:57:14;;;;;;;2.22;1.60;;;15.70;61.50;;;;;;5019133;28;20038;-75
2022/04/19 01:59:41;;;;;;;2.28;1.60;;;15.70;61.50;;;;;;5021858;28;20061;-76
2022/04/19 02:02:09;;;;;;;2.97;1.80;;;15.70;61.50;;;;;;5022081;28;20522;-77
2022/04/19 02:04:44;;;;;;;2.00;1.50;;;15.70;61.50;;;;;;5012112;28;20057;-75
2022/04/19 02:07:11;;;;;;;2.92;1.70;;;15.70;61.40;;;;;;5020438;28;20052;-76
2022/04/19 02:09:39;;;;;;;2.45;1.70;;;15.70;61.50;;;;;;5018116;28;20042;-76
2022/04/19 02:12:07;;;;;;;3.00;1.88;;;15.70;61.50;;;;;;5003685;28;20485;-77
2022/04/19 02:14:34;;;;;;;3.08;1.60;;;15.70;61.60;;;;;;5018467;28;20045;-76
2022/04/19 02:17:07;;;;;;;2.33;1.40;;;15.70;61.50;;;;;;5034333;28;20056;-77
2022/04/19 02:19:34;;;;;;;2.30;1.67;;;15.70;61.50;;;;;;5030538;28;20046;-77
2022/04/19 02:22:06;;;;;;;2.70;1.70;;;15.70;61.60;;;;;;5027360;28;20050;-76
2022/04/19 02:24:34;;;;;;;2.67;1.80;;;15.70;61.50;;;;;;5021812;28;20042;-76
2022/04/19 02:27:05;;;;;;;2.50;1.60;;;15.70;61.50;;;;;;5020164;28;20045;-76
2022/04/19 02:29:32;;;;;;;2.40;1.50;;;15.70;61.50;;;;;;5016571;28;20049;-76
2022/04/19 02:32:00;;;;;;;2.40;1.70;;;15.60;61.50;;;;;;5022677;28;20033;-77
2022/04/19 02:34:27;;;;;;;2.03;1.40;;;15.70;61.50;;;;;;5022239;28;20516;-76
2022/04/19 02:37:05;;;;;;;2.60;1.75;;;15.60;61.50;;;;;;5019260;28;20043;-77
2022/04/19 02:39:32;;;;;;;2.00;1.40;;;15.60;61.50;;;;;;5022052;28;20050;-76
2022/04/19 02:42:02;;;;;;;2.33;1.60;;;15.70;61.60;;;;;;5000640;28;20045;-76
2022/04/19 02:44:30;;;;;;;2.33;1.70;;;15.60;61.50;;;;;;5016333;28;20041;-75
2022/04/19 02:47:03;;;;;;;2.85;1.90;;;15.60;61.50;;;;;;5014035;28;20049;-76
2022/04/19 02:49:30;;;;;;;2.38;1.63;;;15.60;61.50;;;;;;5029846;28;20044;-77
2022/04/19 02:52:05;;;;;;;2.25;1.58;;;15.60;61.50;;;;;;5011325;28;20372;-75
2022/04/19 02:54:32;;;;;;;2.25;1.80;;;15.60;61.50;;;;;;5030622;28;20100;-77
2022/04/19 02:57:06;;;;;;;2.88;1.67;;;15.60;61.50;;;;;;5034057;28;20131;-76
2022/04/19 02:59:35;;;;;;;2.50;1.73;;;15.60;61.50;;;;;;5020722;28;20060;-76
2022/04/19 03:02:02;;;;;;;2.58;1.90;;;15.60;61.50;;;;;;5019653;28;20046;-75
2022/04/19 03:04:32;;;;;;;3.17;1.73;;;15.60;61.50;;;;;;5019987;28;20037;-76
2022/04/19 03:07:01;;;;;;;2.05;1.60;;;15.60;61.50;;;;;;5024097;28;20052;-75
2022/04/19 03:09:27;;;;;;;2.55;1.77;;;15.60;61.50;;;;;;5020117;28;20041;-76
2022/04/19 03:12:06;;;;;;;2.15;1.65;;;15.60;61.60;;;;;;5016530;28;20115;-75
2022/04/19 03:14:35;;;;;;;2.45;1.80;;;15.60;61.50;;;;;;5020492;28;20041;-76
2022/04/19 03:17:02;;;;;;;2.20;1.63;;;15.60;61.60;;;;;;5017885;28;20564;-76
2022/04/19 03:19:28;;;;;;;2.38;1.80;;;15.60;61.60;;;;;;5020315;28;20041;-77
2022/04/19 03:22:05;;;;;;;2.50;1.70;;;15.60;61.60;;;;;;5018703;28;20085;-75
2022/04/19 03:27:44;;;;;;;2.30;1.65;;;15.60;61.60;;;;;;5012024;28;20072;-76
2022/04/19 03:30:14;;;;;;;2.22;1.70;;;15.60;61.60;;;;;;5019988;28;20053;-76
2022/04/19 03:32:55;;;;;;;2.65;1.75;;;15.60;61.70;;;;;;5003102;28;20070;-75
2022/04/19 03:35:26;;;;;;;2.50;1.73;;;15.60;61.60;;;;;;5017872;28;20034;-76
2022/04/19 03:38:05;;;;;;;2.40;1.83;;;15.60;61.60;;;;;;5018584;28;20041;-76
2022/04/19 03:40:32;;;;;;;2.47;1.90;;;15.60;61.60;;;;;;5019624;28;20037;-75
2022/04/19 03:42:59;;;;;;;2.70;1.90;;;15.60;61.60;;;;;;5019282;28;20411;-77
2022/04/19 03:45:38;;;;;;;2.47;1.90;;;15.60;61.70;;;;;;5020269;28;20052;-75
2022/04/19 03:48:05;;;;;;;2.40;1.80;;;15.60;61.50;;;;;;5020138;28;20049;-76
2022/04/19 03:50:32;;;;;;;2.30;1.65;;;15.60;61.50;;;;;;5021548;28;20512;-76
2022/04/19 03:53:18;;;;;;;2.30;1.70;;;15.50;61.40;;;;;;5021133;28;20103;-76
2022/04/19 03:55:45;;;;;;;2.28;1.75;;;15.50;61.50;;;;;;5023476;28;20042;-76
2022/04/19 03:58:20;;;;;;;1.90;1.60;;;15.60;61.60;;;;;;5003191;28;20037;-76
2022/04/19 04:00:49;;;;;;;2.53;1.73;;;15.50;61.50;;;;;;5004360;28;20058;-75
2022/04/19 04:03:28;;;;;;;2.88;1.73;;;15.50;61.40;;;;;;5003938;28;20052;-76
2022/04/19 04:06:05;;;;;;;2.22;1.60;;;15.50;61.40;;;;;;4994690;28;20675;-75
2022/04/19 04:08:32;;;;;;;2.20;1.67;;;15.50;61.50;;;;;;4984921;28;20053;-75
2022/04/19 04:11:05;;;;;;;2.30;1.92;;;15.50;61.30;;;;;;5003299;28;20041;-76
2022/04/19 04:13:41;;;;;;;1.92;1.67;;;15.50;61.40;;;;;;5009289;28;20034;-77
2022/04/19 04:16:14;;;;;;;2.40;1.70;;;15.50;61.50;;;;;;5011168;28;20225;-75
2022/04/19 04:18:50;;;;;;;2.45;1.70;;;15.50;61.40;;;;;;5011075;28;20347;-76
2022/04/19 04:21:31;;;;;;;3.30;2.10;;;15.50;61.40;;;;;;4995788;28;20053;-75
2022/04/19 04:24:05;;;;;;;3.20;1.95;;;15.50;61.40;;;;;;5002547;28;20034;-75
2022/04/19 04:26:36;;;;;;;2.50;1.70;;;15.50;61.40;;;;;;5002761;28;20073;-76
2022/04/19 04:29:05;;;;;;;2.30;1.73;;;15.60;61.60;;;;;;4998981;28;20115;-76
2022/04/19 04:31:40;;;;;;;3.67;2.00;;;15.50;61.30;;;;;;5004397;28;20044;-76
2022/04/19 04:34:09;;;;;;;2.25;1.80;;;15.50;61.30;;;;;;5003758;28;20056;-76
2022/04/19 04:36:42;;;;;;;2.38;1.80;;;15.50;61.50;;;;;;5002674;28;20060;-76
2022/04/19 04:39:23;;;;;;;2.80;1.85;;;15.40;61.30;;;;;;5003750;28;20056;-76
2022/04/19 04:41:53;;;;;;;2.80;1.83;;;15.50;61.30;;;;;;4999797;28;20214;-76
2022/04/19 04:44:27;;;;;;;2.25;1.77;;;15.50;61.30;;;;;;4998384;28;20146;-76
2022/04/19 04:49:42;;;;;;;4.47;2.03;;;15.50;61.40;;;;;;5007810;28;20577;-75
2022/04/19 04:52:28;;;;;;;2.10;1.90;;;15.50;61.30;;;;;;5000703;28;20057;-75
2022/04/19 04:54:55;;;;;;;2.42;1.92;;;15.50;61.30;;;;;;5001994;28;20053;-76
2022/04/19 04:57:25;;;;;;;2.38;1.83;;;15.50;61.30;;;;;;5002458;28;20489;-76
2022/04/19 04:59:52;;;;;;;2.20;1.80;;;15.50;61.30;;;;;;4999153;28;20062;-75
2022/04/19 05:02:25;;;;;;;3.03;2.10;;;15.50;61.40;;;;;;5000142;28;20041;-75
2022/04/19 05:04:52;;;;;;;2.88;1.92;;;15.50;61.30;;;;;;5001501;28;20053;-74
2022/04/19 05:07:38;;;;;;;2.65;2.00;;;15.50;61.30;;;;;;5003613;28;20111;-75
2022/04/19 05:10:06;;;;;;;2.40;1.75;;;15.40;61.20;;;;;;5008594;28;20049;-74
2022/04/19 05:12:33;;;;;;;3.40;2.05;;;15.40;61.10;;;;;;4996398;28;20042;-77
2022/04/19 05:15:06;;;;;;;3.20;2.28;;;15.40;61.10;;;;;;4984826;28;20046;-76
2022/04/19 05:17:34;;;;;;;7.90;6.03;;;15.40;60.50;;;;;;4999167;28;20061;-76
2022/04/19 05:20:09;;;;;;;7.32;5.60;;;14.90;55.80;;;;;;4981151;28;20115;-76
2022/04/19 05:22:36;;;;;;;10.00;3.90;;;14.70;58.80;;;;;;4996141;28;20041;-75
2022/04/19 05:25:05;;;;;;;9.35;3.55;;;14.80;59.40;;;;;;5001914;28;20077;-76
2022/04/19 05:27:32;;;;;;;7.90;5.30;;;15.00;59.30;;;;;;4989993;28;20042;-76
2022/04/19 05:29:59;;;;;;;7.20;4.88;;;15.10;58.90;;;;;;4983393;28;20038;-75
2022/04/19 05:32:27;;;;;;;6.70;4.95;;;15.30;58.90;;;;;;5000767;28;20077;-76
2022/04/19 05:35:04;;;;;;;6.70;5.20;;;15.20;58.80;;;;;;5002206;28;20128;-75
2022/04/19 05:37:37;;;;;;;8.38;4.80;;;15.30;58.90;;;;;;4995466;28;20049;-75
2022/04/19 05:40:06;;;;;;;5.25;4.20;;;15.30;58.90;;;;;;5004415;28;20050;-75
2022/04/19 05:42:52;;;;;;;6.30;4.25;;;15.30;58.80;;;;;;5001133;28;20259;-77
2022/04/19 05:45:20;;;;;;;5.55;4.20;;;15.30;58.80;;;;;;5000043;28;20042;-76
2022/04/19 05:48:07;;;;;;;6.57;4.20;;;15.30;58.80;;;;;;4994322;28;20046;-76
2022/04/19 05:50:37;;;;;;;4.13;3.72;;;15.30;58.80;;;;;;4997251;28;20100;-76
2022/04/19 05:53:06;;;;;;;5.43;3.78;;;15.30;58.80;;;;;;4983867;28;20259;-76
2022/04/19 05:55:34;;;;;;;5.90;3.85;;;15.40;58.90;;;;;;5001509;28;20037;-76
2022/04/19 05:58:01;;;;;;;6.05;4.10;;;15.40;58.90;;;;;;5001680;28;20531;-75
2022/04/19 06:00:30;;;;;;;6.18;3.78;;;15.30;58.90;;;;;;5012657;28;20116;-76
2022/04/19 06:06:08;;;;;;;5.80;3.45;;;15.40;59.10;;;;;;5030703;28;20548;-75
2022/04/19 06:08:53;;;;;;;4.50;3.10;;;15.40;59.20;;;;;;5029070;28;20503;-75
2022/04/19 06:11:21;;;;;;;4.20;2.80;;;15.50;59.20;;;;;;5031732;28;20472;-76
2022/04/19 06:13:59;;;;;;;3.60;3.00;;;15.40;59.10;;;;;;5033721;28;20050;-76
2022/04/19 06:16:38;;;;;;;4.47;3.33;;;15.40;59.10;;;;;;5037916;28;20059;-76
2022/04/19 06:19:05;;;;;;;5.95;2.90;;;15.40;59.10;;;;;;5025041;28;20052;-78
2022/04/19 06:21:33;;;;;;;3.97;3.05;;;15.40;59.10;;;;;;5023751;28;20429;-78
2022/04/19 06:24:06;;;;;;;4.53;3.15;;;15.40;58.90;;;;;;5015996;28;20110;-78
2022/04/19 06:26:40;;;;;;;3.75;3.10;;;15.40;59.00;;;;;;5016416;28;20119;-78
2022/04/19 06:29:07;;;;;;;4.63;2.80;;;15.40;59.10;;;;;;5018788;28;20041;-78
2022/04/19 06:31:40;;;;;;;4.35;3.08;;;15.50;59.20;;;;;;5019667;28;20045;-78
2022/04/19 06:34:08;;;;;;;5.10;2.63;;;15.50;59.10;;;;;;5018798;28;20053;-78
2022/04/19 06:36:39;;;;;;;4.32;2.63;;;15.40;59.10;;;;;;5020864;28;20072;-78
2022/04/19 06:39:05;;;;;;;4.80;2.97;;;15.40;59.00;;;;;;5025819;28;20257;-78
2022/04/19 06:41:38;;;;;;;5.03;3.60;;;15.40;59.00;;;;;;5014768;28;20488;-78
2022/04/19 06:44:06;;;;;;;4.63;2.72;;;15.50;59.00;;;;;;5022192;28;20041;-78
2022/04/19 06:46:33;;;;;;;5.05;3.15;;;15.50;59.20;;;;;;5022107;28;20041;-79
2022/04/19 06:49:01;;;;;;;6.13;3.42;;;15.50;59.20;;;;;;5008678;28;20055;-78
2022/04/19 06:51:39;;;;;;;13.57;8.00;;;15.50;59.00;;;;;;5020869;28;20034;-78
2022/04/19 06:54:07;;;;;;;14.07;7.97;;;15.20;54.50;;;;;;5016688;28;20037;-78
2022/04/19 06:56:37;;;;;;;10.27;7.32;;;14.60;54.80;;;;;;5019789;28;20054;-78
2022/04/19 06:59:05;;;;;;;10.63;6.90;;;14.60;57.00;;;;;;5020219;28;20041;-78
2022/04/19 07:01:32;;;;;;;10.73;6.45;;;14.80;57.70;;;;;;5016220;28;20512;-78
2022/04/19 07:03:59;;;;;;;9.70;6.45;;;15.00;57.40;;;;;;5013853;28;20037;-78
2022/04/19 07:06:26;;;;;;;8.63;5.80;;;15.10;57.60;;;;;;5020267;28;20072;-78
2022/04/19 07:08:55;;;;;;;8.35;5.95;;;15.20;57.90;;;;;;5013624;28;20468;-78
2022/04/19 07:11:37;;;;;;;6.00;5.05;;;15.30;58.10;;;;;;5021314;28;20044;-77
2022/04/19 07:14:05;;;;;;;6.38;4.97;;;15.30;58.10;;;;;;4995427;28;20048;-78
2022/04/19 07:16:33;;;;;;;7.68;5.00;;;15.30;58.10;;;;;;5020622;28;20041;-78
2022/04/19 07:19:05;;;;;;;8.55;4.50;;;15.30;58.00;;;;;;5020121;28;20045;-78
2022/04/19 07:27:11;;;;;;;7.18;4.82;;;15.40;58.20;;;;;;5002606;28;20487;-78
2022/04/19 07:29:38;;;;;;;6.22;4.43;;;15.40;58.30;;;;;;5014038;28;20119;-78
2022/04/19 07:32:06;;;;;;;5.68;4.50;;;15.40;58.20;;;;;;5022749;28;20046;-79
2022/04/19 07:34:52;;;;;;;5.75;4.43;;;15.40;58.30;;;;;;5020150;28;20056;-78
2022/04/19 07:37:19;;;;;;;5.40;4.20;;;15.50;58.40;;;;;;5025108;28;20037;-78
2022/04/19 07:39:51;;;;;;;5.85;4.13;;;15.50;58.40;;;;;;5020640;28;20041;-78
2022/04/19 07:42:36;;;;;;;4.82;3.85;;;15.50;58.40;;;;;;5021210;28;20127;-78
2022/04/19 07:45:06;;;;;;;6.68;4.47;;;15.50;58.40;;;;;;5021271;28;20049;-78
2022/04/19 07:47:34;;;;;;;5.30;3.83;;;15.50;58.50;;;;;;5024654;28;20045;-78
2022/04/19 07:50:02;;;;;;;5.38;3.92;;;15.50;58.50;;;;;;5022989;28;20052;-78
2022/04/19 07:52:32;;;;;;;4.18;3.70;;;15.50;58.50;;;;;;5025144;28;20103;-78
2022/04/19 07:55:05;;;;;;;4.43;3.47;;;15.50;58.60;;;;;;5002489;28;20104;-78
2022/04/19 07:57:44;;;;;;;4.40;3.38;;;15.60;58.60;;;;;;5023261;28;20087;-78
2022/04/19 08:00:31;;;;;;;4.55;3.22;;;15.60;58.70;;;;;;5017959;28;20088;-78
2022/04/19 08:03:00;;;;;;;4.20;3.35;;;15.60;58.70;;;;;;5022695;28;20096;-78
2022/04/19 08:05:30;;;;;;;5.25;3.40;;;15.60;58.70;;;;;;5026206;28;20129;-78
2022/04/19 08:07:58;;;;;;;4.32;3.40;;;15.60;58.50;;;;;;5026188;28;20041;-76
2022/04/19 08:10:29;;;;;;;8.68;6.10;;;15.60;58.60;;;;;;5027038;28;20038;-79
2022/04/19 08:13:05;;;;;;;8.02;3.95;;;15.50;54.90;;;;;;5040256;28;20056;-77
2022/04/19 08:15:33;;;;;;;5.47;3.53;;;15.50;57.20;;;;;;5035764;28;20051;-77
2022/04/19 08:18:05;;;;;;;6.50;3.50;;;15.50;57.50;;;;;;5035987;28;20056;-78
2022/04/19 08:20:35;;;;;;;6.85;3.83;;;15.60;57.90;;;;;;5022965;28;20423;-78
2022/04/19 08:23:07;;;;;;;5.93;3.55;;;15.60;58.10;;;;;;5023967;28;20049;-77
2022/04/19 08:25:39;;;;;;;6.78;3.72;;;15.60;58.20;;;;;;5004606;28;20049;-77
2022/04/19 08:28:07;;;;;;;6.63;3.88;;;15.60;58.20;;;;;;5022619;28;20407;-78
2022/04/19 08:30:35;;;;;;;5.25;3.60;;;15.60;58.20;;;;;;5019012;28;20125;-78
2022/04/19 08:33:03;;;;;;;4.72;3.38;;;15.70;58.30;;;;;;5005857;28;20061;-78
2022/04/19 08:35:31;;;;;;;5.03;3.70;;;15.70;58.30;;;;;;5020438;28;20087;-78
2022/04/19 08:37:58;;;;;;;4.05;3.10;;;15.70;58.30;;;;;;5021601;28;20041;-78
2022/04/19 08:40:26;;;;;;;4.03;3.10;;;15.70;58.10;;;;;;5020992;28;20030;-79
2022/04/19 08:43:00;;;;;;;6.88;3.22;;;15.70;58.20;;;;;;5021148;28;20041;-79
2022/04/19 08:45:28;;;;;;;4.90;3.00;;;15.70;58.40;;;;;;5025068;28;20056;-78
2022/04/19 08:48:09;;;;;;;6.53;3.33;;;15.70;58.40;;;;;;5020918;28;20457;-78
2022/04/19 08:50:45;;;;;;;4.38;2.88;;;15.70;58.40;;;;;;5021233;28;20042;-78
2022/04/19 08:59:07;;;;;;;4.80;3.00;;;15.70;58.40;;;;;;5014985;28;20081;-78
2022/04/19 09:01:36;;;;;;;4.82;2.70;;;15.70;58.40;;;;;;5020447;28;20140;-78
2022/04/19 09:04:05;;;;;;;3.00;2.50;;;15.80;58.40;;;;;;5018408;28;20403;-77
2022/04/19 09:06:51;;;;;;;4.65;2.80;;;15.80;58.50;;;;;;5015789;28;20471;-78
2022/04/19 09:09:25;;;;;;;3.92;2.80;;;15.80;58.30;;;;;;5020019;28;20076;-78
2022/04/19 09:12:10;;;;;;;3.80;2.58;;;15.80;58.40;;;;;;5021988;28;20045;-78
2022/04/19 09:14:55;;;;;;;3.38;2.55;;;15.80;58.40;;;;;;5017578;28;20052;-79
2022/04/19 09:17:40;;;;;;;5.07;2.33;;;15.90;58.80;;;;;;5020630;28;20110;-77
2022/04/19 09:20:13;;;;;;;8.88;2.47;;;15.90;59.00;;;;;;5018385;28;20046;-77
2022/04/19 09:22:48;;;;;;;3.03;2.15;;;15.90;59.10;;;;;;5022380;28;20052;-77
2022/04/19 09:25:35;;;;;;;3.95;2.10;;;15.90;58.80;;;;;;5016412;28;20104;-77
2022/04/19 09:28:05;;;;;;;5.63;2.15;;;15.90;58.70;;;;;;5021464;28;20041;-78
2022/04/19 09:30:39;;;;;;;4.00;2.50;;;15.90;58.70;;;;;;5019504;28;20124;-77
2022/04/19 09:33:08;;;;;;;4.18;2.30;;;15.90;58.70;;;;;;5022778;28;20087;-77
2022/04/19 09:35:41;;;;;;;2.33;1.90;;;15.90;58.60;;;;;;5020309;28;20041;-76
2022/04/19 09:38:38;;;;;;;4.72;1.85;;;15.90;58.60;;;;;;5024300;28;20049;-77
2022/04/19 09:41:06;;;;;;;2.83;2.00;;;15.90;58.60;;;;;;5020611;28;20060;-77
2022/04/19 09:43:37;;;;;;;4.78;1.90;;;15.90;58.60;;;;;;5004160;28;20077;-77
2022/04/19 09:46:07;;;;;;;3.20;1.67;;;15.90;58.70;;;;;;5018150;28;20107;-77
2022/04/19 09:48:36;;;;;;;2.78;1.90;;;15.90;58.60;;;;;;5018576;28;20477;-77
2022/04/19 09:51:04;;;;;;;3.30;1.80;;;15.90;58.70;;;;;;5018817;28;20068;-77
2022/04/19 09:53:33;;;;;;;3.58;1.92;;;15.90;58.60;;;;;;5023943;28;20045;-80
2022/04/19 09:56:10;;;;;;;5.35;2.05;;;15.90;58.70;;;;;;5025164;28;20069;-78
2022/04/19 09:58:38;;;;;;;3.55;2.20;;;16.00;58.70;;;;;;5005920;28;20045;-78
2022/04/19 10:01:07;;;;;;;3.30;2.00;;;16.00;58.30;;;;;;5018728;28;20106;-77
2022/04/19 10:09:19;;;;;;;4.32;2.20;;;16.10;58.00;;;;;;5035444;28;20042;-77
2022/04/19 10:11:46;;;;;;;4.13;2.10;;;16.10;57.90;;;;;;5035122;28;20392;-77
2022/04/19 10:14:16;;;;;;;6.47;2.03;;;16.10;57.90;;;;;;5028872;28;20033;-77
2022/04/19 10:17:04;;;;;;;3.25;2.20;;;16.10;57.70;;;;;;5020984;28;20475;-77
2022/04/19 10:19:33;;;;;;;4.80;2.03;;;16.10;57.60;;;;;;5018274;28;20049;-77
2022/04/19 10:22:09;;;;;;;3.83;2.60;;;16.10;57.80;;;;;;5011859;28;20038;-78
2022/04/19 10:24:46;;;;;;;2.33;1.95;;;16.10;57.50;;;;;;5015266;28;20050;-78
2022/04/19 10:27:31;;;;;;;3.53;1.85;;;16.10;57.50;;;;;;5013625;28;20099;-77
2022/04/19 10:30:02;;;;;;;3.33;2.00;;;16.10;57.40;;;;;;5020500;28;20111;-76
2022/04/19 10:32:40;;;;;;;2.85;1.77;;;16.20;57.20;;;;;;5018434;28;20041;-76
2022/04/19 10:35:10;;;;;;;3.53;2.08;;;16.10;57.30;;;;;;5020591;28;20048;-77
2022/04/19 10:37:37;;;;;;;2.70;1.90;;;16.20;57.50;;;;;;5018872;28;20041;-77
2022/04/19 10:40:08;;;;;;;3.42;1.90;;;16.10;57.70;;;;;;5017058;28;20107;-77
2022/04/19 10:43:13;;;;;;;4.00;1.70;;;16.20;57.60;;;;;;5009157;28;20122;-77
2022/04/19 10:45:41;;;;;;;5.65;1.95;;;16.20;57.70;;;;;;5024155;28;20037;-77
2022/04/19 10:48:23;;;;;;;2.83;1.50;;;16.20;57.50;;;;;;5022291;28;20468;-77
2022/04/19 10:50:53;;;;;;;4.73;1.90;;;16.20;57.80;;;;;;5025001;28;20049;-77
2022/04/19 10:53:31;;;;;;;4.05;1.73;;;16.20;57.70;;;;;;5016375;28;20284;-77
2022/04/19 10:56:02;;;;;;;2.47;1.48;;;16.20;57.60;;;;;;5019942;28;20053;-77
2022/04/19 10:58:40;;;;;;;5.38;1.67;;;16.20;57.60;;;;;;5020297;28;20071;-77
2022/04/19 11:01:31;;;;;;;6.00;1.55;;;16.20;57.70;;;;;;5002140;28;20057;-78
2022/04/19 11:04:00;;;;;;;2.33;1.40;;;16.20;57.90;;;;;;5000146;28;20053;-77
2022/04/19 11:06:40;;;;;;;6.75;1.70;;;16.20;58.00;;;;;;5000123;28;20091;-77
2022/04/19 11:09:21;;;;;;;2.45;1.70;;;16.30;58.00;;;;;;5002448;28;20489;-77
2022/04/19 11:11:58;;;;;;;3.42;1.52;;;16.20;57.90;;;;;;4995450;28;20053;-77
2022/04/19 11:14:45;;;;;;;1.92;1.25;;;16.20;57.90;;;;;;5000532;28;20119;-77
2022/04/19 11:17:27;;;;;;;2.17;1.40;;;16.20;57.90;;;;;;4996260;28;20042;-78
2022/04/19 11:19:57;;;;;;;2.80;1.45;;;16.30;58.60;;;;;;4996119;28;20113;-77
2022/04/19 11:22:42;;;;;;;2.97;1.42;;;16.30;57.90;;;;;;4993329;28;20050;-77
2022/04/19 11:25:35;;;;;;;2.83;1.33;;;16.30;57.90;;;;;;4995795;28;20056;-77
2022/04/19 11:28:23;;;;;;;3.05;1.20;;;16.20;57.80;;;;;;4997379;28;20061;-77
2022/04/19 11:31:11;;;;;;;3.47;1.20;;;16.30;58.10;;;;;;4995260;28;20058;-77
2022/04/19 11:33:38;;;;;;;5.53;1.20;;;16.20;58.00;;;;;;4997427;28;20057;-77
2022/04/19 11:36:10;;;;;;;3.58;1.45;;;16.20;57.80;;;;;;5001654;28;20052;-77
2022/04/19 11:38:54;;;;;;;5.18;1.20;;;16.20;57.60;;;;;;4999110;28;20046;-77
2022/04/19 11:47:09;;;;;;;4.90;2.33;;;16.30;57.80;;;;;;4997684;28;20061;-78
2022/04/19 11:49:38;;;;;;;4.80;2.45;;;16.30;56.50;;;;;;4999947;28;20046;-76
2022/04/19 11:52:12;;;;;;;4.03;2.50;;;16.30;56.40;;;;;;5008508;28;20057;-76
2022/04/19 11:54:43;;;;;;;5.45;2.33;;;16.30;56.00;;;;;;4998363;28;20042;-77
2022/04/19 11:57:11;;;;;;;3.78;2.25;;;16.30;56.00;;;;;;5004818;28;20117;-77
2022/04/19 11:59:40;;;;;;;3.67;2.20;;;16.30;56.10;;;;;;4994465;28;20133;-76
2022/04/19 12:02:22;;;;;;;3.38;2.20;;;16.30;56.40;;;;;;5020561;28;20061;-77
2022/04/19 12:05:06;;;;;;;5.15;2.10;;;16.30;56.40;;;;;;5028883;28;20041;-77
2022/04/19 12:07:46;;;;;;;3.88;2.08;;;16.30;56.50;;;;;;5045151;28;20052;-76
2022/04/19 12:10:29;;;;;;;3.50;1.90;;;16.30;56.50;;;;;;5032836;28;20045;-76
2022/04/19 12:12:58;;;;;;;4.72;1.80;;;16.30;56.60;;;;;;5027071;28;20050;-76
2022/04/19 12:15:38;;;;;;;3.22;1.67;;;16.30;56.70;;;;;;5002908;28;20041;-76
2022/04/19 12:18:06;;;;;;;2.30;1.52;;;16.30;57.40;;;;;;5011689;28;20084;-77
2022/04/19 12:20:51;;;;;;;3.03;1.60;;;16.30;56.90;;;;;;5023761;28;20052;-76
2022/04/19 12:23:22;;;;;;;4.03;1.70;;;16.30;57.60;;;;;;5017191;28;20050;-77
2022/04/19 12:26:07;;;;;;;4.55;1.75;;;16.30;57.10;;;;;;5031480;28;20049;-78
2022/04/19 12:28:45;;;;;;;3.33;1.70;;;16.30;57.00;;;;;;5022573;28;20037;-76
2022/04/19 12:31:35;;;;;;;5.10;2.20;;;16.30;57.00;;;;;;5020151;28;20056;-77
2022/04/19 12:34:03;;;;;;;5.70;2.85;;;16.30;56.90;;;;;;5018768;28;20037;-78
2022/04/19 12:36:43;;;;;;;7.40;2.55;;;16.40;56.20;;;;;;5023509;28;20072;-77
2022/04/19 12:39:23;;;;;;;6.85;2.65;;;16.40;56.00;;;;;;5023479;28;20046;-77
2022/04/19 12:42:07;;;;;;;8.23;2.83;;;16.40;55.80;;;;;;5004656;28;20120;-77
2022/04/19 12:44:36;;;;;;;4.10;2.25;;;16.40;55.80;;;;;;5012938;28;20077;-77
2022/04/19 12:47:11;;;;;;;4.90;2.45;;;16.40;55.70;;;;;;5019266;28;20049;-77
2022/04/19 12:49:44;;;;;;;4.38;2.05;;;16.40;56.20;;;;;;5017914;28;20083;-77
2022/04/19 12:52:33;;;;;;;3.05;2.08;;;16.40;56.20;;;;;;5021014;28;20112;-77
2022/04/19 12:55:02;;;;;;;4.80;2.10;;;16.40;56.30;;;;;;5017592;28;20041;-77
2022/04/19 12:57:29;;;;;;;7.68;2.10;;;16.40;56.60;;;;;;5022759;28;20041;-76
2022/04/19 12:59:57;;;;;;;3.85;2.45;;;16.40;56.50;;;;;;5016473;28;20049;-78
2022/04/19 13:02:41;;;;;;;5.65;2.20;;;16.40;56.70;;;;;;5021692;28;20160;-78
2022/04/19 13:05:09;;;;;;;3.13;1.83;;;16.40;56.80;;;;;;5019451;28;20044;-77
2022/04/19 13:13:13;;;;;;;2.83;1.83;;;16.40;57.10;;;;;;4997918;28;20050;-78
2022/04/19 13:15:41;;;;;;;2.97;1.70;;;16.40;57.10;;;;;;5023102;28;20041;-78
2022/04/19 13:18:08;;;;;;;3.65;1.85;;;16.40;57.10;;;;;;5021539;28;20037;-77
2022/04/19 13:20:35;;;;;;;4.55;1.95;;;16.40;57.20;;;;;;5028590;28;20052;-78
2022/04/19 13:23:06;;;;;;;2.58;1.60;;;16.40;57.10;;;;;;5026441;28;20049;-78
2022/04/19 13:25:40;;;;;;;4.20;1.70;;;16.40;57.30;;;;;;5021843;28;20146;-77
2022/04/19 13:28:07;;;;;;;2.40;1.50;;;16.40;57.40;;;;;;5017351;28;20041;-77
2022/04/19 13:30:43;;;;;;;2.70;1.50;;;16.40;57.30;;;;;;5022311;28;20044;-74
2022/04/19 13:33:30;;;;;;;2.75;1.50;;;16.40;57.30;;;;;;5001033;28;20042;-75
2022/04/19 13:35:57;;;;;;;2.78;1.80;;;16.40;57.40;;;;;;5030021;28;20045;-77
2022/04/19 13:38:25;;;;;;;2.85;1.52;;;16.40;57.30;;;;;;5020972;28;20552;-77
2022/04/19 13:40:53;;;;;;;4.15;1.50;;;16.40;57.40;;;;;;5023852;28;20115;-78
2022/04/19 13:43:35;;;;;;;6.22;1.35;;;16.40;57.40;;;;;;5021430;28;20049;-77
2022/04/19 13:46:06;;;;;;;2.13;1.40;;;16.40;57.30;;;;;;5018034;28;20038;-77
2022/04/19 13:48:36;;;;;;;5.57;1.17;;;16.40;57.20;;;;;;5017552;28;20114;-77
2022/04/19 13:51:05;;;;;;;3.95;1.30;;;16.40;57.20;;;;;;5005200;28;20136;-76
2022/04/19 13:53:33;;;;;;;2.85;1.30;;;16.40;57.40;;;;;;5002985;28;20038;-77
2022/04/19 13:56:07;;;;;;;2.17;1.15;;;16.40;57.40;;;;;;5022116;28;20049;-77